sensor_id;sensor_type;location;lat;lon;timestamp;P1;durP1;ratioP1;P2;durP2;ratioP2
26864;SDS011;40618;51.166;10.322;2022-11-23T00:01:18;6.30;;;1.80;;
26864;SDS011;40618;51.166;10.322;2022-11-23T00:03:57;5.55;;;1.40;;
26864;SDS011;40618;51.166;10.322;2022-11-23T00:06:27;5.10;;;1.55;;
26864;SDS011;40618;51.166;10.322;2022-11-23T00:08:53;3.88;;;1.50;;
26864;SDS011;40618;51.166;10.322;2022-11-23T00:11:19;5.40;;;1.60;;
26864;SDS011;40618;51.166;10.322;2022-11-23T00:13:47;9.00;;;2.40;;
26864;SDS011;40618;51.166;10.322;2022-11-23T00:16:14;3.58;;;1.60;;
26864;SDS011;40618;51.166;10.322;2022-11-23T00:18:43;6.50;;;1.90;;
26864;SDS011;40618;51.166;10.322;2022-11-23T00:21:11;6.38;;;1.38;;
26864;SDS011;40618;51.166;10.322;2022-11-23T00:23:39;3.45;;;1.60;;
26864;SDS011;40618;51.166;10.322;2022-11-23T00:26:05;4.03;;;1.33;;
26864;SDS011;40618;51.166;10.322;2022-11-23T00:28:32;3.97;;;1.80;;
26864;SDS011;40618;51.166;10.322;2022-11-23T00:30:59;6.05;;;1.77;;
26864;SDS011;40618;51.166;10.322;2022-11-23T00:33:24;4.80;;;1.73;;
26864;SDS011;40618;51.166;10.322;2022-11-23T00:36:00;2.42;;;1.30;;
26864;SDS011;40618;51.166;10.322;2022-11-23T00:38:31;4.57;;;1.55;;
26864;SDS011;40618;51.166;10.322;2022-11-23T00:40:58;3.95;;;1.65;;
26864;SDS011;40618;51.166;10.322;2022-11-23T00:43:31;4.25;;;1.70;;
26864;SDS011;40618;51.166;10.322;2022-11-23T00:46:39;4.60;;;2.35;;
26864;SDS011;40618;51.166;10.322;2022-11-23T00:48:52;6.68;;;1.45;;
26864;SDS011;40618;51.166;10.322;2022-11-23T00:51:21;5.35;;;1.88;;
26864;SDS011;40618;51.166;10.322;2022-11-23T00:53:52;6.80;;;1.60;;
26864;SDS011;40618;51.166;10.322;2022-11-23T00:56:18;4.60;;;1.10;;
26864;SDS011;40618;51.166;10.322;2022-11-23T00:58:48;6.88;;;1.50;;
26864;SDS011;40618;51.166;10.322;2022-11-23T01:01:15;3.22;;;1.20;;
26864;SDS011;40618;51.166;10.322;2022-11-23T01:03:44;7.00;;;1.77;;
26864;SDS011;40618;51.166;10.322;2022-11-23T01:06:17;4.72;;;1.58;;
26864;SDS011;40618;51.166;10.322;2022-11-23T01:08:50;8.88;;;2.22;;
26864;SDS011;40618;51.166;10.322;2022-11-23T01:11:18;4.32;;;2.33;;
26864;SDS011;40618;51.166;10.322;2022-11-23T01:13:46;2.90;;;1.73;;
26864;SDS011;40618;51.166;10.322;2022-11-23T01:16:13;5.93;;;1.85;;
26864;SDS011;40618;51.166;10.322;2022-11-23T01:18:46;3.92;;;1.55;;
26864;SDS011;40618;51.166;10.322;2022-11-23T01:21:12;6.65;;;1.70;;
26864;SDS011;40618;51.166;10.322;2022-11-23T01:23:37;7.07;;;2.08;;
26864;SDS011;40618;51.166;10.322;2022-11-23T01:26:07;9.68;;;2.17;;
26864;SDS011;40618;51.166;10.322;2022-11-23T01:28:34;7.05;;;2.05;;
26864;SDS011;40618;51.166;10.322;2022-11-23T01:31:12;3.50;;;1.63;;
26864;SDS011;40618;51.166;10.322;2022-11-23T01:33:44;4.07;;;1.90;;
26864;SDS011;40618;51.166;10.322;2022-11-23T01:36:14;5.85;;;1.83;;
26864;SDS011;40618;51.166;10.322;2022-11-23T01:38:43;10.43;;;1.60;;
26864;SDS011;40618;51.166;10.322;2022-11-23T01:41:16;6.68;;;1.67;;
26864;SDS011;40618;51.166;10.322;2022-11-23T01:43:48;9.00;;;1.80;;
26864;SDS011;40618;51.166;10.322;2022-11-23T01:46:15;5.50;;;1.25;;
26864;SDS011;40618;51.166;10.322;2022-11-23T01:48:43;10.30;;;1.70;;
26864;SDS011;40618;51.166;10.322;2022-11-23T01:51:53;1.92;;;1.10;;
26864;SDS011;40618;51.166;10.322;2022-11-23T01:54:21;8.45;;;1.50;;
26864;SDS011;40618;51.166;10.322;2022-11-23T01:56:56;3.80;;;1.20;;
26864;SDS011;40618;51.166;10.322;2022-11-23T01:59:29;6.35;;;2.30;;
26864;SDS011;40618;51.166;10.322;2022-11-23T02:01:57;5.72;;;1.67;;
26864;SDS011;40618;51.166;10.322;2022-11-23T02:04:23;4.65;;;1.70;;
26864;SDS011;40618;51.166;10.322;2022-11-23T02:06:58;4.07;;;1.75;;
26864;SDS011;40618;51.166;10.322;2022-11-23T02:09:27;3.45;;;1.40;;
26864;SDS011;40618;51.166;10.322;2022-11-23T02:11:56;6.28;;;2.05;;
26864;SDS011;40618;51.166;10.322;2022-11-23T02:14:22;3.97;;;1.70;;
26864;SDS011;40618;51.166;10.322;2022-11-23T02:16:48;4.97;;;1.50;;
26864;SDS011;40618;51.166;10.322;2022-11-23T02:22:22;4.57;;;1.27;;
26864;SDS011;40618;51.166;10.322;2022-11-23T02:24:55;2.28;;;0.85;;
26864;SDS011;40618;51.166;10.322;2022-11-23T02:27:21;5.93;;;1.80;;
26864;SDS011;40618;51.166;10.322;2022-11-23T02:29:47;4.68;;;1.33;;
26864;SDS011;40618;51.166;10.322;2022-11-23T02:32:19;5.25;;;1.50;;
26864;SDS011;40618;51.166;10.322;2022-11-23T02:34:48;4.43;;;1.10;;
26864;SDS011;40618;51.166;10.322;2022-11-23T02:37:14;4.43;;;1.25;;
26864;SDS011;40618;51.166;10.322;2022-11-23T02:39:46;4.97;;;1.13;;
26864;SDS011;40618;51.166;10.322;2022-11-23T02:42:15;4.47;;;1.30;;
26864;SDS011;40618;51.166;10.322;2022-11-23T02:47:32;2.17;;;0.90;;
26864;SDS011;40618;51.166;10.322;2022-11-23T02:49:57;3.70;;;1.30;;
26864;SDS011;40618;51.166;10.322;2022-11-23T02:52:23;7.97;;;2.25;;
26864;SDS011;40618;51.166;10.322;2022-11-23T02:54:48;4.05;;;1.42;;
26864;SDS011;40618;51.166;10.322;2022-11-23T02:57:14;2.97;;;1.05;;
26864;SDS011;40618;51.166;10.322;2022-11-23T02:59:40;3.65;;;1.40;;
26864;SDS011;40618;51.166;10.322;2022-11-23T03:02:06;3.97;;;1.30;;
26864;SDS011;40618;51.166;10.322;2022-11-23T03:04:32;7.05;;;1.35;;
26864;SDS011;40618;51.166;10.322;2022-11-23T03:06:57;4.18;;;1.15;;
26864;SDS011;40618;51.166;10.322;2022-11-23T03:09:23;5.25;;;1.60;;
26864;SDS011;40618;51.166;10.322;2022-11-23T03:11:50;3.25;;;1.25;;
26864;SDS011;40618;51.166;10.322;2022-11-23T03:14:17;4.43;;;1.30;;
26864;SDS011;40618;51.166;10.322;2022-11-23T03:16:42;1.90;;;0.90;;
26864;SDS011;40618;51.166;10.322;2022-11-23T03:19:08;5.10;;;1.30;;
26864;SDS011;40618;51.166;10.322;2022-11-23T03:21:33;8.07;;;1.83;;
26864;SDS011;40618;51.166;10.322;2022-11-23T03:23:59;5.03;;;1.90;;
26864;SDS011;40618;51.166;10.322;2022-11-23T03:26:24;4.10;;;1.45;;
26864;SDS011;40618;51.166;10.322;2022-11-23T03:28:50;7.15;;;1.92;;
26864;SDS011;40618;51.166;10.322;2022-11-23T03:31:16;5.18;;;1.52;;
26864;SDS011;40618;51.166;10.322;2022-11-23T03:33:41;4.63;;;1.40;;
26864;SDS011;40618;51.166;10.322;2022-11-23T03:36:07;1.80;;;1.05;;
26864;SDS011;40618;51.166;10.322;2022-11-23T03:38:33;4.38;;;1.25;;
26864;SDS011;40618;51.166;10.322;2022-11-23T03:40:58;7.13;;;1.45;;
26864;SDS011;40618;51.166;10.322;2022-11-23T03:43:24;3.17;;;1.10;;
26864;SDS011;40618;51.166;10.322;2022-11-23T03:45:50;4.20;;;1.15;;
26864;SDS011;40618;51.166;10.322;2022-11-23T03:48:15;4.45;;;1.13;;
26864;SDS011;40618;51.166;10.322;2022-11-23T03:50:42;4.10;;;1.20;;
26864;SDS011;40618;51.166;10.322;2022-11-23T03:53:08;4.40;;;1.55;;
26864;SDS011;40618;51.166;10.322;2022-11-23T03:55:34;5.93;;;1.10;;
26864;SDS011;40618;51.166;10.322;2022-11-23T03:58:00;10.75;;;1.60;;
26864;SDS011;40618;51.166;10.322;2022-11-23T04:00:27;5.05;;;1.52;;
26864;SDS011;40618;51.166;10.322;2022-11-23T04:02:54;3.67;;;1.38;;
26864;SDS011;40618;51.166;10.322;2022-11-23T04:05:20;3.15;;;1.10;;
26864;SDS011;40618;51.166;10.322;2022-11-23T04:07:46;2.90;;;1.23;;
26864;SDS011;40618;51.166;10.322;2022-11-23T04:10:14;4.03;;;1.40;;
26864;SDS011;40618;51.166;10.322;2022-11-23T04:12:41;6.78;;;1.40;;
26864;SDS011;40618;51.166;10.322;2022-11-23T04:15:07;6.53;;;1.50;;
26864;SDS011;40618;51.166;10.322;2022-11-23T04:17:34;7.13;;;1.63;;
26864;SDS011;40618;51.166;10.322;2022-11-23T04:19:59;5.05;;;1.27;;
26864;SDS011;40618;51.166;10.322;2022-11-23T04:22:25;5.15;;;1.52;;
26864;SDS011;40618;51.166;10.322;2022-11-23T04:24:51;4.32;;;1.20;;
26864;SDS011;40618;51.166;10.322;2022-11-23T04:27:16;4.45;;;1.40;;
26864;SDS011;40618;51.166;10.322;2022-11-23T04:29:42;7.20;;;1.40;;
26864;SDS011;40618;51.166;10.322;2022-11-23T04:32:07;4.53;;;1.50;;
26864;SDS011;40618;51.166;10.322;2022-11-23T04:34:33;5.07;;;1.50;;
26864;SDS011;40618;51.166;10.322;2022-11-23T04:36:59;7.95;;;1.65;;
26864;SDS011;40618;51.166;10.322;2022-11-23T04:39:24;7.50;;;1.50;;
26864;SDS011;40618;51.166;10.322;2022-11-23T04:41:50;5.78;;;1.20;;
26864;SDS011;40618;51.166;10.322;2022-11-23T04:44:15;4.07;;;1.15;;
26864;SDS011;40618;51.166;10.322;2022-11-23T04:46:41;9.30;;;1.40;;
26864;SDS011;40618;51.166;10.322;2022-11-23T04:49:07;8.73;;;2.58;;
26864;SDS011;40618;51.166;10.322;2022-11-23T04:51:34;7.05;;;1.38;;
26864;SDS011;40618;51.166;10.322;2022-11-23T04:53:59;13.25;;;2.70;;
26864;SDS011;40618;51.166;10.322;2022-11-23T04:56:25;5.35;;;1.10;;
26864;SDS011;40618;51.166;10.322;2022-11-23T04:58:50;4.22;;;1.13;;
26864;SDS011;40618;51.166;10.322;2022-11-23T05:01:16;4.30;;;1.45;;
26864;SDS011;40618;51.166;10.322;2022-11-23T05:03:41;4.45;;;1.30;;
26864;SDS011;40618;51.166;10.322;2022-11-23T05:06:08;5.88;;;1.98;;
26864;SDS011;40618;51.166;10.322;2022-11-23T05:08:34;3.88;;;1.30;;
26864;SDS011;40618;51.166;10.322;2022-11-23T05:11:01;5.40;;;1.48;;
26864;SDS011;40618;51.166;10.322;2022-11-23T05:13:26;4.88;;;1.30;;
26864;SDS011;40618;51.166;10.322;2022-11-23T05:15:52;5.60;;;1.40;;
26864;SDS011;40618;51.166;10.322;2022-11-23T05:18:18;4.75;;;1.50;;
26864;SDS011;40618;51.166;10.322;2022-11-23T05:20:44;3.10;;;1.50;;
26864;SDS011;40618;51.166;10.322;2022-11-23T05:23:10;3.42;;;1.23;;
26864;SDS011;40618;51.166;10.322;2022-11-23T05:25:36;5.03;;;1.65;;
26864;SDS011;40618;51.166;10.322;2022-11-23T05:28:02;5.32;;;1.30;;
26864;SDS011;40618;51.166;10.322;2022-11-23T05:30:28;4.63;;;1.30;;
26864;SDS011;40618;51.166;10.322;2022-11-23T05:32:53;7.95;;;1.50;;
26864;SDS011;40618;51.166;10.322;2022-11-23T05:35:27;4.97;;;1.52;;
26864;SDS011;40618;51.166;10.322;2022-11-23T05:37:54;6.63;;;1.85;;
26864;SDS011;40618;51.166;10.322;2022-11-23T05:40:20;11.13;;;1.70;;
26864;SDS011;40618;51.166;10.322;2022-11-23T05:42:46;3.00;;;1.42;;
26864;SDS011;40618;51.166;10.322;2022-11-23T05:45:11;4.07;;;1.45;;
26864;SDS011;40618;51.166;10.322;2022-11-23T05:47:37;3.30;;;1.63;;
26864;SDS011;40618;51.166;10.322;2022-11-23T05:50:03;5.38;;;1.40;;
26864;SDS011;40618;51.166;10.322;2022-11-23T05:52:29;5.78;;;1.63;;
26864;SDS011;40618;51.166;10.322;2022-11-23T05:54:55;8.45;;;1.60;;
26864;SDS011;40618;51.166;10.322;2022-11-23T05:57:20;5.50;;;1.40;;
26864;SDS011;40618;51.166;10.322;2022-11-23T05:59:46;5.80;;;1.50;;
26864;SDS011;40618;51.166;10.322;2022-11-23T06:02:13;6.05;;;1.90;;
26864;SDS011;40618;51.166;10.322;2022-11-23T06:04:38;8.50;;;1.65;;
26864;SDS011;40618;51.166;10.322;2022-11-23T06:07:04;5.57;;;1.30;;
26864;SDS011;40618;51.166;10.322;2022-11-23T06:09:30;5.32;;;1.42;;
26864;SDS011;40618;51.166;10.322;2022-11-23T06:11:55;2.60;;;1.20;;
26864;SDS011;40618;51.166;10.322;2022-11-23T06:14:21;4.97;;;1.95;;
26864;SDS011;40618;51.166;10.322;2022-11-23T06:16:46;5.05;;;2.17;;
26864;SDS011;40618;51.166;10.322;2022-11-23T06:19:12;10.65;;;2.08;;
26864;SDS011;40618;51.166;10.322;2022-11-23T06:21:38;4.03;;;1.73;;
26864;SDS011;40618;51.166;10.322;2022-11-23T06:24:03;5.57;;;1.75;;
26864;SDS011;40618;51.166;10.322;2022-11-23T06:26:29;4.78;;;1.58;;
26864;SDS011;40618;51.166;10.322;2022-11-23T06:28:56;4.72;;;2.20;;
26864;SDS011;40618;51.166;10.322;2022-11-23T06:31:22;6.82;;;2.63;;
26864;SDS011;40618;51.166;10.322;2022-11-23T06:33:47;11.93;;;4.20;;
26864;SDS011;40618;51.166;10.322;2022-11-23T06:36:13;9.70;;;4.20;;
26864;SDS011;40618;51.166;10.322;2022-11-23T06:38:39;14.27;;;4.05;;
26864;SDS011;40618;51.166;10.322;2022-11-23T06:41:05;11.07;;;3.70;;
26864;SDS011;40618;51.166;10.322;2022-11-23T06:43:31;19.65;;;3.92;;
26864;SDS011;40618;51.166;10.322;2022-11-23T06:45:57;11.98;;;3.75;;
26864;SDS011;40618;51.166;10.322;2022-11-23T06:48:22;10.20;;;3.78;;
26864;SDS011;40618;51.166;10.322;2022-11-23T06:50:48;11.95;;;3.63;;
26864;SDS011;40618;51.166;10.322;2022-11-23T06:53:14;13.82;;;5.03;;
26864;SDS011;40618;51.166;10.322;2022-11-23T06:55:40;11.55;;;4.72;;
26864;SDS011;40618;51.166;10.322;2022-11-23T06:58:07;14.73;;;4.38;;
26864;SDS011;40618;51.166;10.322;2022-11-23T07:00:33;11.35;;;3.45;;
26864;SDS011;40618;51.166;10.322;2022-11-23T07:02:59;12.88;;;3.95;;
26864;SDS011;40618;51.166;10.322;2022-11-23T07:05:25;10.10;;;3.75;;
26864;SDS011;40618;51.166;10.322;2022-11-23T07:07:51;11.25;;;3.45;;
26864;SDS011;40618;51.166;10.322;2022-11-23T07:10:17;10.85;;;3.50;;
26864;SDS011;40618;51.166;10.322;2022-11-23T07:12:43;12.57;;;5.68;;
26864;SDS011;40618;51.166;10.322;2022-11-23T07:15:09;8.85;;;3.13;;
26864;SDS011;40618;51.166;10.322;2022-11-23T07:17:41;9.57;;;3.67;;
26864;SDS011;40618;51.166;10.322;2022-11-23T07:20:09;15.75;;;3.97;;
26864;SDS011;40618;51.166;10.322;2022-11-23T07:22:36;13.57;;;4.15;;
26864;SDS011;40618;51.166;10.322;2022-11-23T07:25:03;10.07;;;3.08;;
26864;SDS011;40618;51.166;10.322;2022-11-23T07:27:30;18.00;;;5.45;;
26864;SDS011;40618;51.166;10.322;2022-11-23T07:29:55;9.57;;;3.17;;
26864;SDS011;40618;51.166;10.322;2022-11-23T07:32:21;11.80;;;4.32;;
26864;SDS011;40618;51.166;10.322;2022-11-23T07:34:46;12.10;;;4.78;;
26864;SDS011;40618;51.166;10.322;2022-11-23T07:37:12;15.10;;;4.47;;
26864;SDS011;40618;51.166;10.322;2022-11-23T07:39:38;12.30;;;4.10;;
26864;SDS011;40618;51.166;10.322;2022-11-23T07:42:03;12.23;;;3.78;;
26864;SDS011;40618;51.166;10.322;2022-11-23T07:44:29;12.98;;;3.65;;
26864;SDS011;40618;51.166;10.322;2022-11-23T07:46:54;13.50;;;4.75;;
26864;SDS011;40618;51.166;10.322;2022-11-23T07:49:20;13.18;;;4.32;;
26864;SDS011;40618;51.166;10.322;2022-11-23T07:51:45;11.90;;;4.35;;
26864;SDS011;40618;51.166;10.322;2022-11-23T07:54:11;11.45;;;4.00;;
26864;SDS011;40618;51.166;10.322;2022-11-23T07:56:37;10.18;;;3.97;;
26864;SDS011;40618;51.166;10.322;2022-11-23T07:59:02;11.00;;;3.53;;
26864;SDS011;40618;51.166;10.322;2022-11-23T08:01:28;15.15;;;4.80;;
26864;SDS011;40618;51.166;10.322;2022-11-23T08:03:55;12.70;;;3.17;;
26864;SDS011;40618;51.166;10.322;2022-11-23T08:06:21;11.30;;;4.15;;
26864;SDS011;40618;51.166;10.322;2022-11-23T08:08:47;20.77;;;6.28;;
26864;SDS011;40618;51.166;10.322;2022-11-23T08:11:12;20.80;;;6.15;;
26864;SDS011;40618;51.166;10.322;2022-11-23T08:13:41;10.95;;;3.75;;
26864;SDS011;40618;51.166;10.322;2022-11-23T08:16:07;25.55;;;7.30;;
26864;SDS011;40618;51.166;10.322;2022-11-23T08:18:33;10.60;;;3.63;;
26864;SDS011;40618;51.166;10.322;2022-11-23T08:20:59;21.60;;;6.82;;
26864;SDS011;40618;51.166;10.322;2022-11-23T08:23:25;11.35;;;3.90;;
26864;SDS011;40618;51.166;10.322;2022-11-23T08:25:51;5.95;;;2.00;;
26864;SDS011;40618;51.166;10.322;2022-11-23T08:28:17;9.90;;;3.22;;
26864;SDS011;40618;51.166;10.322;2022-11-23T08:30:43;8.25;;;2.78;;
26864;SDS011;40618;51.166;10.322;2022-11-23T08:33:09;7.75;;;2.50;;
26864;SDS011;40618;51.166;10.322;2022-11-23T08:35:37;8.70;;;2.45;;
26864;SDS011;40618;51.166;10.322;2022-11-23T08:38:06;11.35;;;4.00;;
26864;SDS011;40618;51.166;10.322;2022-11-23T08:40:34;9.48;;;4.18;;
26864;SDS011;40618;51.166;10.322;2022-11-23T08:43:00;13.25;;;4.40;;
26864;SDS011;40618;51.166;10.322;2022-11-23T08:45:27;10.05;;;4.55;;
26864;SDS011;40618;51.166;10.322;2022-11-23T08:47:53;9.48;;;3.35;;
26864;SDS011;40618;51.166;10.322;2022-11-23T08:50:24;7.93;;;3.30;;
26864;SDS011;40618;51.166;10.322;2022-11-23T08:52:54;8.55;;;3.55;;
26864;SDS011;40618;51.166;10.322;2022-11-23T08:55:21;5.60;;;2.33;;
26864;SDS011;40618;51.166;10.322;2022-11-23T08:57:48;8.25;;;2.85;;
26864;SDS011;40618;51.166;10.322;2022-11-23T09:00:14;8.50;;;2.60;;
26864;SDS011;40618;51.166;10.322;2022-11-23T09:02:40;6.65;;;3.03;;
26864;SDS011;40618;51.166;10.322;2022-11-23T09:05:06;5.38;;;2.88;;
26864;SDS011;40618;51.166;10.322;2022-11-23T09:07:32;7.85;;;2.47;;
26864;SDS011;40618;51.166;10.322;2022-11-23T09:09:57;4.85;;;2.10;;
26864;SDS011;40618;51.166;10.322;2022-11-23T09:12:23;5.68;;;2.28;;
26864;SDS011;40618;51.166;10.322;2022-11-23T09:14:48;3.03;;;1.80;;
26864;SDS011;40618;51.166;10.322;2022-11-23T09:17:14;6.78;;;2.17;;
26864;SDS011;40618;51.166;10.322;2022-11-23T09:19:39;5.57;;;2.08;;
26864;SDS011;40618;51.166;10.322;2022-11-23T09:22:05;8.25;;;2.63;;
26864;SDS011;40618;51.166;10.322;2022-11-23T09:24:31;7.95;;;2.88;;
26864;SDS011;40618;51.166;10.322;2022-11-23T09:26:56;5.57;;;2.22;;
26864;SDS011;40618;51.166;10.322;2022-11-23T09:29:22;7.63;;;2.33;;
26864;SDS011;40618;51.166;10.322;2022-11-23T09:31:49;5.22;;;2.20;;
26864;SDS011;40618;51.166;10.322;2022-11-23T09:34:15;8.18;;;2.45;;
26864;SDS011;40618;51.166;10.322;2022-11-23T09:36:40;5.68;;;1.73;;
26864;SDS011;40618;51.166;10.322;2022-11-23T09:39:06;7.10;;;2.03;;
26864;SDS011;40618;51.166;10.322;2022-11-23T09:44:38;6.32;;;2.13;;
26864;SDS011;40618;51.166;10.322;2022-11-23T09:47:10;11.15;;;3.20;;
26864;SDS011;40618;51.166;10.322;2022-11-23T09:53:40;10.27;;;2.15;;
26864;SDS011;40618;51.166;10.322;2022-11-23T09:56:24;5.85;;;2.08;;
26864;SDS011;40618;51.166;10.322;2022-11-23T09:58:55;6.97;;;1.85;;
26864;SDS011;40618;51.166;10.322;2022-11-23T10:01:25;5.90;;;1.80;;
26864;SDS011;40618;51.166;10.322;2022-11-23T10:03:51;9.77;;;2.60;;
26864;SDS011;40618;51.166;10.322;2022-11-23T10:06:27;6.43;;;1.95;;
26864;SDS011;40618;51.166;10.322;2022-11-23T10:17:22;11.38;;;2.03;;
26864;SDS011;40618;51.166;10.322;2022-11-23T10:26:40;7.63;;;1.70;;
26864;SDS011;40618;51.166;10.322;2022-11-23T10:29:11;5.30;;;2.08;;
26864;SDS011;40618;51.166;10.322;2022-11-23T10:31:54;7.40;;;1.67;;
26864;SDS011;40618;51.166;10.322;2022-11-23T10:37:15;8.35;;;1.95;;
26864;SDS011;40618;51.166;10.322;2022-11-23T10:39:42;8.82;;;1.90;;
26864;SDS011;40618;51.166;10.322;2022-11-23T10:42:22;6.40;;;2.80;;
26864;SDS011;40618;51.166;10.322;2022-11-23T10:44:56;6.28;;;1.67;;
26864;SDS011;40618;51.166;10.322;2022-11-23T10:47:38;3.50;;;1.70;;
26864;SDS011;40618;51.166;10.322;2022-11-23T10:50:20;4.68;;;1.77;;
26864;SDS011;40618;51.166;10.322;2022-11-23T10:52:50;4.95;;;1.88;;
26864;SDS011;40618;51.166;10.322;2022-11-23T10:55:21;6.90;;;1.92;;
26864;SDS011;40618;51.166;10.322;2022-11-23T10:57:52;6.43;;;1.60;;
26864;SDS011;40618;51.166;10.322;2022-11-23T11:00:19;7.70;;;2.10;;
26864;SDS011;40618;51.166;10.322;2022-11-23T11:02:47;4.55;;;1.65;;
26864;SDS011;40618;51.166;10.322;2022-11-23T11:08:07;9.93;;;1.90;;
26864;SDS011;40618;51.166;10.322;2022-11-23T11:10:41;4.68;;;2.10;;
26864;SDS011;40618;51.166;10.322;2022-11-23T11:13:20;6.47;;;1.80;;
26864;SDS011;40618;51.166;10.322;2022-11-23T11:16:20;4.55;;;1.60;;
26864;SDS011;40618;51.166;10.322;2022-11-23T11:18:55;5.70;;;1.52;;
26864;SDS011;40618;51.166;10.322;2022-11-23T11:21:22;4.25;;;1.77;;
26864;SDS011;40618;51.166;10.322;2022-11-23T11:24:01;3.80;;;1.33;;
26864;SDS011;40618;51.166;10.322;2022-11-23T11:26:31;4.03;;;1.33;;
26864;SDS011;40618;51.166;10.322;2022-11-23T11:29:00;4.72;;;1.60;;
26864;SDS011;40618;51.166;10.322;2022-11-23T11:37:16;5.57;;;2.22;;
26864;SDS011;40618;51.166;10.322;2022-11-23T11:48:15;7.90;;;1.77;;
26864;SDS011;40618;51.166;10.322;2022-11-23T11:51:03;5.70;;;2.55;;
26864;SDS011;40618;51.166;10.322;2022-11-23T11:53:53;5.95;;;2.35;;
26864;SDS011;40618;51.166;10.322;2022-11-23T11:56:37;5.93;;;2.40;;
26864;SDS011;40618;51.166;10.322;2022-11-23T11:59:27;7.60;;;2.63;;
26864;SDS011;40618;51.166;10.322;2022-11-23T12:08:12;8.40;;;1.50;;
26864;SDS011;40618;51.166;10.322;2022-11-23T12:10:56;10.98;;;1.95;;
26864;SDS011;40618;51.166;10.322;2022-11-23T12:13:27;5.47;;;2.15;;
26864;SDS011;40618;51.166;10.322;2022-11-23T12:17:02;4.38;;;1.73;;
26864;SDS011;40618;51.166;10.322;2022-11-23T12:25:21;5.63;;;2.17;;
26864;SDS011;40618;51.166;10.322;2022-11-23T12:28:20;7.35;;;2.50;;
26864;SDS011;40618;51.166;10.322;2022-11-23T12:45:54;4.40;;;1.40;;
26864;SDS011;40618;51.166;10.322;2022-11-23T12:48:42;7.40;;;1.80;;
26864;SDS011;40618;51.166;10.322;2022-11-23T12:51:31;6.68;;;1.90;;
26864;SDS011;40618;51.166;10.322;2022-11-23T12:54:20;5.25;;;1.50;;
26864;SDS011;40618;51.166;10.322;2022-11-23T12:59:59;6.00;;;1.67;;
26864;SDS011;40618;51.166;10.322;2022-11-23T13:08:49;10.00;;;2.17;;
26864;SDS011;40618;51.166;10.322;2022-11-23T13:20:14;3.67;;;1.38;;
26864;SDS011;40618;51.166;10.322;2022-11-23T13:22:47;3.22;;;1.52;;
26864;SDS011;40618;51.166;10.322;2022-11-23T13:25:20;5.72;;;1.52;;
26864;SDS011;40618;51.166;10.322;2022-11-23T13:30:22;6.65;;;1.48;;
26864;SDS011;40618;51.166;10.322;2022-11-23T13:40:39;8.98;;;2.28;;
26864;SDS011;40618;51.166;10.322;2022-11-23T13:43:14;9.65;;;3.03;;
26864;SDS011;40618;51.166;10.322;2022-11-23T13:45:45;7.07;;;2.53;;
26864;SDS011;40618;51.166;10.322;2022-11-23T13:48:48;6.50;;;1.75;;
26864;SDS011;40618;51.166;10.322;2022-11-23T13:51:24;9.00;;;2.50;;
26864;SDS011;40618;51.166;10.322;2022-11-23T13:56:31;4.25;;;1.35;;
26864;SDS011;40618;51.166;10.322;2022-11-23T14:02:21;3.90;;;1.48;;
26864;SDS011;40618;51.166;10.322;2022-11-23T14:04:51;4.68;;;1.60;;
26864;SDS011;40618;51.166;10.322;2022-11-23T14:10:03;4.47;;;1.90;;
26864;SDS011;40618;51.166;10.322;2022-11-23T14:12:49;4.80;;;1.65;;
26864;SDS011;40618;51.166;10.322;2022-11-23T14:15:20;9.88;;;2.67;;
26864;SDS011;40618;51.166;10.322;2022-11-23T14:33:04;6.35;;;4.25;;
26864;SDS011;40618;51.166;10.322;2022-11-23T14:35:42;7.63;;;3.00;;
26864;SDS011;40618;51.166;10.322;2022-11-23T14:41:15;5.03;;;2.05;;
26864;SDS011;40618;51.166;10.322;2022-11-23T14:43:45;4.10;;;1.73;;
26864;SDS011;40618;51.166;10.322;2022-11-23T14:46:18;4.28;;;1.80;;
26864;SDS011;40618;51.166;10.322;2022-11-23T14:48:47;4.03;;;1.98;;
26864;SDS011;40618;51.166;10.322;2022-11-23T14:51:17;4.47;;;1.90;;
26864;SDS011;40618;51.166;10.322;2022-11-23T14:53:48;3.50;;;2.13;;
26864;SDS011;40618;51.166;10.322;2022-11-23T14:56:26;4.20;;;2.25;;
26864;SDS011;40618;51.166;10.322;2022-11-23T15:02:00;4.13;;;2.50;;
26864;SDS011;40618;51.166;10.322;2022-11-23T15:04:29;7.93;;;1.60;;
26864;SDS011;40618;51.166;10.322;2022-11-23T15:07:05;2.90;;;1.33;;
26864;SDS011;40618;51.166;10.322;2022-11-23T15:09:38;3.30;;;2.08;;
26864;SDS011;40618;51.166;10.322;2022-11-23T15:14:49;9.27;;;3.13;;
26864;SDS011;40618;51.166;10.322;2022-11-23T15:17:18;6.57;;;2.78;;
26864;SDS011;40618;51.166;10.322;2022-11-23T15:19:52;7.18;;;3.30;;
26864;SDS011;40618;51.166;10.322;2022-11-23T15:22:26;6.43;;;2.17;;
26864;SDS011;40618;51.166;10.322;2022-11-23T15:24:53;7.22;;;1.85;;
26864;SDS011;40618;51.166;10.322;2022-11-23T15:27:29;6.38;;;2.50;;
26864;SDS011;40618;51.166;10.322;2022-11-23T15:29:55;3.35;;;1.73;;
26864;SDS011;40618;51.166;10.322;2022-11-23T15:35:06;4.68;;;1.27;;
26864;SDS011;40618;51.166;10.322;2022-11-23T15:37:47;3.90;;;1.75;;
26864;SDS011;40618;51.166;10.322;2022-11-23T15:40:15;6.95;;;1.80;;
26864;SDS011;40618;51.166;10.322;2022-11-23T15:42:43;5.40;;;1.75;;
26864;SDS011;40618;51.166;10.322;2022-11-23T15:48:01;1.98;;;1.40;;
26864;SDS011;40618;51.166;10.322;2022-11-23T15:50:31;4.18;;;1.55;;
26864;SDS011;40618;51.166;10.322;2022-11-23T15:53:00;4.03;;;1.05;;
26864;SDS011;40618;51.166;10.322;2022-11-23T15:55:27;5.32;;;1.00;;
26864;SDS011;40618;51.166;10.322;2022-11-23T15:57:54;4.45;;;1.13;;
26864;SDS011;40618;51.166;10.322;2022-11-23T16:00:22;4.30;;;1.20;;
26864;SDS011;40618;51.166;10.322;2022-11-23T16:02:50;4.00;;;1.30;;
26864;SDS011;40618;51.166;10.322;2022-11-23T16:05:18;3.85;;;0.90;;
26864;SDS011;40618;51.166;10.322;2022-11-23T16:07:57;1.23;;;0.65;;
26864;SDS011;40618;51.166;10.322;2022-11-23T16:10:26;1.73;;;0.98;;
26864;SDS011;40618;51.166;10.322;2022-11-23T16:13:03;3.45;;;1.25;;
26864;SDS011;40618;51.166;10.322;2022-11-23T16:17:58;5.82;;;1.23;;
26864;SDS011;40618;51.166;10.322;2022-11-23T16:20:26;5.65;;;1.00;;
26864;SDS011;40618;51.166;10.322;2022-11-23T16:22:54;3.80;;;1.42;;
26864;SDS011;40618;51.166;10.322;2022-11-23T16:25:27;4.80;;;1.35;;
26864;SDS011;40618;51.166;10.322;2022-11-23T16:28:13;4.85;;;1.38;;
26864;SDS011;40618;51.166;10.322;2022-11-23T16:30:47;3.33;;;1.02;;
26864;SDS011;40618;51.166;10.322;2022-11-23T16:33:16;3.30;;;1.20;;
26864;SDS011;40618;51.166;10.322;2022-11-23T16:35:44;5.13;;;1.60;;
26864;SDS011;40618;51.166;10.322;2022-11-23T16:38:10;4.32;;;1.20;;
26864;SDS011;40618;51.166;10.322;2022-11-23T16:40:37;6.97;;;1.17;;
26864;SDS011;40618;51.166;10.322;2022-11-23T16:43:04;5.22;;;0.98;;
26864;SDS011;40618;51.166;10.322;2022-11-23T16:45:30;4.30;;;1.27;;
26864;SDS011;40618;51.166;10.322;2022-11-23T16:47:57;3.92;;;1.40;;
26864;SDS011;40618;51.166;10.322;2022-11-23T16:50:27;4.15;;;1.30;;
26864;SDS011;40618;51.166;10.322;2022-11-23T16:53:01;4.63;;;1.60;;
26864;SDS011;40618;51.166;10.322;2022-11-23T16:55:38;4.97;;;2.30;;
26864;SDS011;40618;51.166;10.322;2022-11-23T16:58:04;3.65;;;1.80;;
26864;SDS011;40618;51.166;10.322;2022-11-23T17:00:32;2.67;;;1.70;;
26864;SDS011;40618;51.166;10.322;2022-11-23T17:02:58;6.25;;;2.67;;
26864;SDS011;40618;51.166;10.322;2022-11-23T17:05:23;7.00;;;3.45;;
26864;SDS011;40618;51.166;10.322;2022-11-23T17:07:49;7.43;;;3.53;;
26864;SDS011;40618;51.166;10.322;2022-11-23T17:10:15;8.35;;;2.90;;